Time;durP1;ratioP1;P1;durP2;ratioP2;P2;SDS_P1;SDS_P2;PMS_P1;PMS_P2;Temp;Humidity;BMP_temperature;BMP_pressure;BME280_temperature;BME280_humidity;BME280_pressure;Samples;Min_cycle;Max_cycle;Signal;HPM_P1;HPM_P2
2023/05/21 00:01:15;;;;;;;0.70;0.70;;;;;;;;;;4961431;28;92190;-56
2023/05/21 00:03:45;;;;;;;0.77;0.60;;;;;;;;;;4961039;28;93224;-56
2023/05/21 00:06:14;;;;;;;1.40;0.80;;;;;;;;;;4961151;28;92759;-56
2023/05/21 00:08:42;;;;;;;2.57;0.67;;;;;;;;;;4961373;28;92136;-56
2023/05/21 00:11:11;;;;;;;1.13;0.97;;;;;;;;;;4960589;28;92010;-56
2023/05/21 00:13:39;;;;;;;0.70;0.70;;;;;;;;;;4960128;28;94092;-56
2023/05/21 00:16:09;;;;;;;1.23;0.73;;;;;;;;;;4960683;28;93764;-57
2023/05/21 00:18:39;;;;;;;3.63;0.80;;;;;;;;;;4960758;28;92078;-56
2023/05/21 00:21:08;;;;;;;0.60;0.53;;;;;;;;;;4959159;28;92131;-56
2023/05/21 00:23:38;;;;;;;0.50;0.50;;;;;;;;;;4960650;28;94251;-56
2023/05/21 00:26:06;;;;;;;0.83;0.80;;;;;;;;;;4960576;28;92970;-56
2023/05/21 00:28:35;;;;;;;0.60;0.50;;;;;;;;;;4960838;28;92059;-56
2023/05/21 00:31:03;;;;;;;0.60;0.60;;;;;;;;;;4961385;28;92222;-56
2023/05/21 00:33:32;;;;;;;0.60;0.60;;;;;;;;;;4975154;28;93443;-56
2023/05/21 00:36:02;;;;;;;1.03;0.67;;;;;;;;;;4960392;28;93916;-56
2023/05/21 00:38:31;;;;;;;0.77;0.60;;;;;;;;;;4979340;28;93499;-57
2023/05/21 00:41:01;;;;;;;0.97;0.70;;;;;;;;;;4970543;28;92094;-57
2023/05/21 00:43:31;;;;;;;0.80;0.80;;;;;;;;;;4960147;28;93261;-56
2023/05/21 00:45:59;;;;;;;1.33;0.80;;;;;;;;;;4960209;28;92812;-56
2023/05/21 00:48:28;;;;;;;1.20;1.00;;;;;;;;;;4961397;28;92049;-56
2023/05/21 00:50:56;;;;;;;0.40;0.40;;;;;;;;;;4960536;28;92343;-57
2023/05/21 00:53:26;;;;;;;0.60;0.60;;;;;;;;;;4960899;28;93203;-56
2023/05/21 00:55:56;;;;;;;0.60;0.60;;;;;;;;;;4959707;28;93912;-58
2023/05/21 00:58:24;;;;;;;0.70;0.70;;;;;;;;;;4960882;28;92039;-55
2023/05/21 01:00:54;;;;;;;0.73;0.73;;;;;;;;;;4960286;28;92976;-56
2023/05/21 01:03:23;;;;;;;0.73;0.70;;;;;;;;;;4960008;28;94039;-55
2023/05/21 01:05:52;;;;;;;0.70;0.70;;;;;;;;;;4960208;28;94879;-55
2023/05/21 01:08:20;;;;;;;1.23;0.83;;;;;;;;;;4960017;28;92092;-57
2023/05/21 01:10:49;;;;;;;0.70;0.70;;;;;;;;;;4960439;28;92094;-57
2023/05/21 01:13:19;;;;;;;0.60;0.60;;;;;;;;;;4960121;28;94271;-56
2023/05/21 01:15:47;;;;;;;1.07;0.90;;;;;;;;;;4960010;28;92479;-55
2023/05/21 01:18:16;;;;;;;1.73;0.97;;;;;;;;;;4960862;28;92145;-56
2023/05/21 01:20:46;;;;;;;1.03;0.80;;;;;;;;;;4960382;28;91412;-56
2023/05/21 01:23:17;;;;;;;2.00;1.10;;;;;;;;;;4960054;28;93630;-56
2023/05/21 01:25:45;;;;;;;0.87;0.80;;;;;;;;;;4959805;28;93956;-55
2023/05/21 01:28:14;;;;;;;0.73;0.70;;;;;;;;;;4959705;28;93213;-56
2023/05/21 01:30:42;;;;;;;0.70;0.70;;;;;;;;;;4960185;28;92256;-56
2023/05/21 01:33:12;;;;;;;0.70;0.70;;;;;;;;;;4959796;28;93269;-56
2023/05/21 01:35:42;;;;;;;0.60;0.60;;;;;;;;;;4959601;28;92049;-56
2023/05/21 01:38:13;;;;;;;1.47;0.87;;;;;;;;;;4960040;28;92072;-55
2023/05/21 01:40:46;;;;;;;0.60;0.60;;;;;;;;;;4960138;28;91923;-55
2023/05/21 01:43:14;;;;;;;1.87;0.70;;;;;;;;;;4959379;28;94297;-55
2023/05/21 01:45:43;;;;;;;1.30;0.80;;;;;;;;;;4960501;28;93908;-56
2023/05/21 01:48:11;;;;;;;0.57;0.57;;;;;;;;;;4960024;28;92492;-55
2023/05/21 01:50:39;;;;;;;1.37;0.87;;;;;;;;;;4959926;28;93800;-56
2023/05/21 01:53:08;;;;;;;1.90;0.63;;;;;;;;;;4955119;28;95028;-55
2023/05/21 01:55:40;;;;;;;0.70;0.70;;;;;;;;;;4957726;28;94765;-56
2023/05/21 01:58:10;;;;;;;0.50;0.50;;;;;;;;;;4956258;28;92565;-56
2023/05/21 02:00:39;;;;;;;1.50;0.87;;;;;;;;;;4959641;28;92033;-56
2023/05/21 02:03:07;;;;;;;1.93;1.00;;;;;;;;;;4959914;28;94273;-56
2023/05/21 02:05:36;;;;;;;3.70;1.13;;;;;;;;;;4959439;28;92025;-56
2023/05/21 02:08:07;;;;;;;2.37;0.87;;;;;;;;;;4958595;28;92438;-55
2023/05/21 02:10:35;;;;;;;1.33;0.60;;;;;;;;;;4960115;28;91409;-56
2023/05/21 02:13:03;;;;;;;0.70;0.70;;;;;;;;;;4959720;28;93227;-55
2023/05/21 02:15:33;;;;;;;1.27;0.80;;;;;;;;;;4959527;28;94092;-56
2023/05/21 02:18:03;;;;;;;0.53;0.53;;;;;;;;;;4959575;28;93114;-55
2023/05/21 02:20:31;;;;;;;1.23;0.80;;;;;;;;;;4959588;28;92048;-56
2023/05/21 02:22:59;;;;;;;2.97;0.70;;;;;;;;;;4959165;28;94354;-56
2023/05/21 02:25:28;;;;;;;0.70;0.50;;;;;;;;;;4959221;28;92716;-56
2023/05/21 02:27:56;;;;;;;0.70;0.70;;;;;;;;;;4959589;28;92042;-56
2023/05/21 02:30:25;;;;;;;0.77;0.70;;;;;;;;;;4959363;28;92029;-55
2023/05/21 02:32:57;;;;;;;0.50;0.50;;;;;;;;;;4959285;28;93257;-56
2023/05/21 02:35:26;;;;;;;1.00;0.73;;;;;;;;;;4959822;28;94052;-56
2023/05/21 02:37:57;;;;;;;1.77;1.00;;;;;;;;;;4959296;28;92096;-56
2023/05/21 02:40:26;;;;;;;0.80;0.80;;;;;;;;;;4958081;28;92093;-56
2023/05/21 02:42:54;;;;;;;2.57;0.93;;;;;;;;;;4958395;28;93997;-56
2023/05/21 02:45:22;;;;;;;4.27;1.00;;;;;;;;;;4959291;28;95091;-56
2023/05/21 02:47:51;;;;;;;0.73;0.73;;;;;;;;;;4958957;28;92160;-56
2023/05/21 02:50:22;;;;;;;1.07;0.97;;;;;;;;;;4958984;28;91997;-55
2023/05/21 02:52:51;;;;;;;1.03;0.80;;;;;;;;;;4958363;28;93257;-56
2023/05/21 02:55:19;;;;;;;1.33;0.60;;;;;;;;;;4958926;28;93932;-56
2023/05/21 02:57:48;;;;;;;1.37;0.70;;;;;;;;;;4959167;28;92299;-56
2023/05/21 03:00:16;;;;;;;0.60;0.60;;;;;;;;;;4959904;28;91273;-56
2023/05/21 03:02:45;;;;;;;0.90;0.60;;;;;;;;;;4958775;28;94252;-55
2023/05/21 03:05:13;;;;;;;0.97;0.73;;;;;;;;;;4958509;28;92772;-56
2023/05/21 03:07:43;;;;;;;1.50;0.70;;;;;;;;;;4958670;28;92995;-55
2023/05/21 03:10:11;;;;;;;1.00;0.60;;;;;;;;;;4959024;28;92175;-56
2023/05/21 03:12:40;;;;;;;0.60;0.60;;;;;;;;;;4958397;28;92917;-56
2023/05/21 03:15:08;;;;;;;1.90;0.50;;;;;;;;;;4959039;28;92884;-56
2023/05/21 03:17:37;;;;;;;0.97;0.63;;;;;;;;;;4958964;28;92089;-55
2023/05/21 03:20:07;;;;;;;0.87;0.87;;;;;;;;;;4958989;28;91974;-56
2023/05/21 03:22:37;;;;;;;0.57;0.53;;;;;;;;;;4958241;28;93267;-55
2023/05/21 03:25:08;;;;;;;3.37;0.70;;;;;;;;;;4958916;28;93869;-55
2023/05/21 03:27:36;;;;;;;0.87;0.83;;;;;;;;;;4957900;28;93558;-56
2023/05/21 03:30:05;;;;;;;1.47;0.80;;;;;;;;;;4958527;28;92131;-56
2023/05/21 03:32:36;;;;;;;3.03;1.00;;;;;;;;;;4959733;28;94286;-55
2023/05/21 03:35:05;;;;;;;0.43;0.43;;;;;;;;;;4961797;28;94974;-56
2023/05/21 03:37:33;;;;;;;1.23;0.93;;;;;;;;;;4962355;28;92130;-56
2023/05/21 03:40:02;;;;;;;1.00;0.90;;;;;;;;;;4962027;28;92072;-56
2023/05/21 03:42:32;;;;;;;0.70;0.70;;;;;;;;;;4961513;28;93196;-56
2023/05/21 03:45:00;;;;;;;0.57;0.57;;;;;;;;;;4961550;28;92936;-56
2023/05/21 03:47:28;;;;;;;1.33;0.73;;;;;;;;;;4961644;28;92340;-56
2023/05/21 03:49:57;;;;;;;1.33;1.00;;;;;;;;;;4959519;28;92864;-56
2023/05/21 03:52:25;;;;;;;3.30;0.90;;;;;;;;;;4942286;28;93335;-56
2023/05/21 03:54:53;;;;;;;1.60;0.90;;;;;;;;;;4958653;28;92853;-56
2023/05/21 03:57:22;;;;;;;0.40;0.40;;;;;;;;;;4961549;28;92960;-56
2023/05/21 03:59:51;;;;;;;1.10;0.70;;;;;;;;;;4945759;28;92134;-56
2023/05/21 04:02:20;;;;;;;0.77;0.60;;;;;;;;;;4961675;28;93056;-56
2023/05/21 04:04:50;;;;;;;0.87;0.80;;;;;;;;;;4946403;28;92817;-55
2023/05/21 04:07:18;;;;;;;1.37;0.60;;;;;;;;;;4961515;28;92085;-56
2023/05/21 04:09:47;;;;;;;1.77;0.70;;;;;;;;;;4960857;28;91952;-56
2023/05/21 04:12:16;;;;;;;0.77;0.77;;;;;;;;;;4941527;28;93346;-56
2023/05/21 04:14:45;;;;;;;0.60;0.60;;;;;;;;;;4955209;28;92620;-56
2023/05/21 04:17:15;;;;;;;1.67;0.60;;;;;;;;;;4961311;28;92034;-55
2023/05/21 04:19:43;;;;;;;0.60;0.60;;;;;;;;;;4961508;28;92063;-55
2023/05/21 04:22:11;;;;;;;0.90;0.90;;;;;;;;;;4941591;28;95151;-56
2023/05/21 04:24:40;;;;;;;0.50;0.50;;;;;;;;;;4952210;28;93727;-55
2023/05/21 04:27:08;;;;;;;1.47;1.00;;;;;;;;;;4961450;28;92144;-55
2023/05/21 04:29:41;;;;;;;0.57;0.50;;;;;;;;;;4950484;28;93448;-56
2023/05/21 04:32:10;;;;;;;1.27;0.90;;;;;;;;;;4976329;28;93194;-55
2023/05/21 04:34:40;;;;;;;0.57;0.57;;;;;;;;;;4969968;28;92098;-56
2023/05/21 04:37:09;;;;;;;3.03;1.03;;;;;;;;;;4961243;28;92114;-55
2023/05/21 04:39:37;;;;;;;1.10;0.90;;;;;;;;;;4961077;28;91196;-56
2023/05/21 04:42:09;;;;;;;0.97;0.83;;;;;;;;;;4960471;28;93281;-55
2023/05/21 04:44:39;;;;;;;0.70;0.70;;;;;;;;;;4960430;28;92924;-56
2023/05/21 04:47:07;;;;;;;3.57;1.00;;;;;;;;;;4961218;28;92977;-56
2023/05/21 04:49:36;;;;;;;1.17;0.77;;;;;;;;;;4960889;28;92025;-56
2023/05/21 04:52:07;;;;;;;2.43;1.00;;;;;;;;;;4960634;28;94440;-56
2023/05/21 04:54:37;;;;;;;0.70;0.70;;;;;;;;;;4960317;28;92785;-56
2023/05/21 04:57:06;;;;;;;1.83;0.80;;;;;;;;;;4960721;28;92102;-56
2023/05/21 04:59:34;;;;;;;0.80;0.80;;;;;;;;;;4960538;28;92117;-56
2023/05/21 05:02:03;;;;;;;1.07;0.90;;;;;;;;;;4960252;28;94165;-56
2023/05/21 05:04:31;;;;;;;0.50;0.47;;;;;;;;;;4960277;28;91646;-56
2023/05/21 05:07:00;;;;;;;0.50;0.50;;;;;;;;;;4960664;28;92130;-56
2023/05/21 05:09:30;;;;;;;0.73;0.70;;;;;;;;;;4960118;28;92164;-56
2023/05/21 05:11:58;;;;;;;0.83;0.83;;;;;;;;;;4959869;28;95160;-55
2023/05/21 05:14:27;;;;;;;2.93;0.80;;;;;;;;;;4959127;28;93965;-55
2023/05/21 05:16:58;;;;;;;1.10;0.80;;;;;;;;;;4959520;28;92251;-56
2023/05/21 05:19:27;;;;;;;1.67;0.90;;;;;;;;;;4953267;28;92041;-56
2023/05/21 05:21:55;;;;;;;0.80;0.80;;;;;;;;;;4960076;28;94131;-56
2023/05/21 05:24:24;;;;;;;3.07;0.70;;;;;;;;;;4959675;28;92742;-56
2023/05/21 05:26:53;;;;;;;2.40;1.13;;;;;;;;;;4959789;28;92624;-57
2023/05/21 05:29:22;;;;;;;0.73;0.70;;;;;;;;;;4960651;28;91262;-57
2023/05/21 05:31:50;;;;;;;1.03;0.93;;;;;;;;;;4959838;28;93281;-56
2023/05/21 05:34:18;;;;;;;2.00;1.00;;;;;;;;;;4960290;28;92933;-56
2023/05/21 05:36:47;;;;;;;2.90;1.10;;;;;;;;;;4959893;28;93059;-56
2023/05/21 05:39:15;;;;;;;1.80;0.80;;;;;;;;;;4960248;28;92851;-55
2023/05/21 05:41:43;;;;;;;2.70;1.13;;;;;;;;;;4959542;28;93302;-57
2023/05/21 05:44:13;;;;;;;1.37;0.80;;;;;;;;;;4959950;28;92928;-55
2023/05/21 05:46:41;;;;;;;1.03;0.83;;;;;;;;;;4959039;28;93833;-55
2023/05/21 05:49:10;;;;;;;1.23;1.10;;;;;;;;;;4960085;28;92053;-55
2023/05/21 05:51:38;;;;;;;2.87;1.10;;;;;;;;;;4959582;28;93285;-55
2023/05/21 05:54:06;;;;;;;2.20;0.73;;;;;;;;;;4959453;28;92967;-55
2023/05/21 05:56:35;;;;;;;2.43;1.10;;;;;;;;;;4959677;28;92171;-56
2023/05/21 05:59:03;;;;;;;1.30;0.77;;;;;;;;;;4959740;28;91992;-55
2023/05/21 06:01:33;;;;;;;1.53;0.97;;;;;;;;;;4958068;28;94250;-55
2023/05/21 06:04:01;;;;;;;3.30;1.20;;;;;;;;;;4959806;28;93558;-55
2023/05/21 06:06:30;;;;;;;0.63;0.60;;;;;;;;;;4960406;28;92077;-56
2023/05/21 06:08:58;;;;;;;1.20;0.80;;;;;;;;;;4959660;28;91990;-55
2023/05/21 06:11:27;;;;;;;1.13;0.97;;;;;;;;;;4959421;28;94310;-55
2023/05/21 06:13:55;;;;;;;0.90;0.90;;;;;;;;;;4958750;28;92814;-55
2023/05/21 06:16:23;;;;;;;2.80;1.17;;;;;;;;;;4959319;28;92489;-55
2023/05/21 06:18:53;;;;;;;1.07;0.97;;;;;;;;;;4959666;28;91362;-55
2023/05/21 06:21:22;;;;;;;0.77;0.70;;;;;;;;;;4959020;28;94008;-55
2023/05/21 06:23:50;;;;;;;0.97;0.97;;;;;;;;;;4958807;28;92511;-55
2023/05/21 06:26:18;;;;;;;1.17;0.93;;;;;;;;;;4958743;28;92949;-55
2023/05/21 06:28:47;;;;;;;1.47;0.90;;;;;;;;;;4958834;28;92085;-55
2023/05/21 06:31:16;;;;;;;0.67;0.67;;;;;;;;;;4958558;28;94157;-55
2023/05/21 06:33:44;;;;;;;1.20;0.60;;;;;;;;;;4959142;28;93206;-55
2023/05/21 06:36:15;;;;;;;0.87;0.70;;;;;;;;;;4959649;28;92093;-56
2023/05/21 06:38:43;;;;;;;1.83;0.80;;;;;;;;;;4958735;28;92147;-55
2023/05/21 06:41:11;;;;;;;1.23;0.90;;;;;;;;;;4963656;28;94244;-55
2023/05/21 06:43:40;;;;;;;1.20;1.00;;;;;;;;;;4958510;28;93980;-55
2023/05/21 06:46:08;;;;;;;2.03;0.80;;;;;;;;;;4958466;28;92185;-54
2023/05/21 06:48:36;;;;;;;1.53;0.90;;;;;;;;;;4958628;28;92167;-56
2023/05/21 06:51:05;;;;;;;0.47;0.47;;;;;;;;;;4957654;28;95102;-56
2023/05/21 06:53:34;;;;;;;0.70;0.60;;;;;;;;;;4957830;28;94853;-56
2023/05/21 06:56:03;;;;;;;1.50;0.70;;;;;;;;;;4957791;28;92087;-56
2023/05/21 06:58:31;;;;;;;1.10;0.90;;;;;;;;;;4956834;28;92007;-56
2023/05/21 07:00:59;;;;;;;1.07;0.97;;;;;;;;;;4962979;28;94665;-56
2023/05/21 07:03:28;;;;;;;0.60;0.60;;;;;;;;;;4964356;28;93957;-56
2023/05/21 07:05:57;;;;;;;1.10;1.00;;;;;;;;;;4975420;28;92097;-56
2023/05/21 07:08:26;;;;;;;0.97;0.70;;;;;;;;;;4979728;28;91450;-56
2023/05/21 07:10:56;;;;;;;1.57;0.80;;;;;;;;;;4981783;28;94376;-56
2023/05/21 07:13:24;;;;;;;0.80;0.80;;;;;;;;;;4977325;28;92791;-56
2023/05/21 07:15:52;;;;;;;1.20;1.00;;;;;;;;;;4961539;28;93168;-56
2023/05/21 07:18:21;;;;;;;1.57;0.90;;;;;;;;;;4975213;28;92040;-56
2023/05/21 07:20:49;;;;;;;0.90;0.80;;;;;;;;;;4965380;28;93186;-56
2023/05/21 07:23:18;;;;;;;1.23;0.87;;;;;;;;;;4960503;28;92051;-56
2023/05/21 07:25:46;;;;;;;3.40;1.20;;;;;;;;;;4961430;28;92085;-56
2023/05/21 07:28:16;;;;;;;0.80;0.80;;;;;;;;;;4959474;28;92202;-56
2023/05/21 07:30:44;;;;;;;2.70;1.03;;;;;;;;;;4942587;28;94194;-56
2023/05/21 07:33:12;;;;;;;1.07;0.80;;;;;;;;;;4961413;28;92725;-56
2023/05/21 07:35:41;;;;;;;1.27;0.93;;;;;;;;;;4961847;28;92167;-56
2023/05/21 07:38:09;;;;;;;0.70;0.70;;;;;;;;;;4959752;28;92069;-56
2023/05/21 07:40:37;;;;;;;1.40;0.77;;;;;;;;;;4960768;28;94564;-56
2023/05/21 07:43:06;;;;;;;1.27;0.90;;;;;;;;;;4960152;28;94913;-56
2023/05/21 07:45:35;;;;;;;0.93;0.70;;;;;;;;;;4961686;28;92223;-57
2023/05/21 07:48:04;;;;;;;2.43;1.03;;;;;;;;;;4961002;28;92151;-57
2023/05/21 07:50:32;;;;;;;2.20;0.77;;;;;;;;;;4961369;28;92745;-57
2023/05/21 07:53:01;;;;;;;2.07;0.90;;;;;;;;;;4960980;28;93960;-57
2023/05/21 07:55:29;;;;;;;1.00;0.80;;;;;;;;;;4962053;28;92250;-57
2023/05/21 07:57:58;;;;;;;1.07;0.97;;;;;;;;;;4961404;28;92705;-57
2023/05/21 08:00:26;;;;;;;6.53;1.33;;;;;;;;;;4961240;28;92121;-59
2023/05/21 08:02:56;;;;;;;0.80;0.80;;;;;;;;;;4960708;28;93798;-60
2023/05/21 08:05:25;;;;;;;1.43;0.90;;;;;;;;;;4966114;28;92996;-60
2023/05/21 08:07:53;;;;;;;1.50;0.70;;;;;;;;;;4963408;28;92103;-60
2023/05/21 08:10:21;;;;;;;3.17;1.10;;;;;;;;;;4960630;28;95994;-60
2023/05/21 08:12:50;;;;;;;0.90;0.80;;;;;;;;;;4959697;28;92804;-59
2023/05/21 08:15:18;;;;;;;1.23;1.07;;;;;;;;;;4960414;28;91859;-59
2023/05/21 08:17:46;;;;;;;0.80;0.80;;;;;;;;;;4960302;28;92203;-60
2023/05/21 08:20:16;;;;;;;2.07;1.17;;;;;;;;;;4960375;28;93033;-60
2023/05/21 08:22:45;;;;;;;1.80;1.00;;;;;;;;;;4961130;28;94132;-60
2023/05/21 08:25:13;;;;;;;1.67;1.00;;;;;;;;;;4961200;28;93135;-60
2023/05/21 08:27:41;;;;;;;1.20;1.10;;;;;;;;;;4960571;28;92162;-60
2023/05/21 08:30:10;;;;;;;1.57;1.27;;;;;;;;;;4959535;28;94063;-60
2023/05/21 08:32:39;;;;;;;0.97;0.97;;;;;;;;;;4960358;28;93871;-61
2023/05/21 08:35:08;;;;;;;1.00;1.00;;;;;;;;;;4961231;28;92121;-58
2023/05/21 08:37:37;;;;;;;1.37;0.93;;;;;;;;;;4960598;28;92301;-59
2023/05/21 08:40:07;;;;;;;1.57;1.47;;;;;;;;;;4960785;28;93382;-60
2023/05/21 08:42:37;;;;;;;1.63;1.33;;;;;;;;;;4943648;28;93190;-59
2023/05/21 08:45:06;;;;;;;0.63;0.63;;;;;;;;;;4961257;28;92119;-58
2023/05/21 08:47:34;;;;;;;2.07;1.10;;;;;;;;;;4961055;28;91329;-59
2023/05/21 08:50:04;;;;;;;1.73;1.30;;;;;;;;;;4960745;28;94208;-59
2023/05/21 08:52:32;;;;;;;3.37;1.50;;;;;;;;;;4960233;28;92783;-59
2023/05/21 08:55:02;;;;;;;7.67;1.40;;;;;;;;;;4960208;28;93023;-59
2023/05/21 08:57:31;;;;;;;2.23;1.10;;;;;;;;;;4959633;28;92095;-59
2023/05/21 09:00:00;;;;;;;1.33;1.17;;;;;;;;;;4959668;28;94499;-55
2023/05/21 09:02:29;;;;;;;1.57;1.10;;;;;;;;;;4960194;28;92782;-58
2023/05/21 09:04:57;;;;;;;2.50;1.17;;;;;;;;;;4960805;28;92095;-59
2023/05/21 09:07:27;;;;;;;1.97;1.30;;;;;;;;;;4960649;28;91985;-59
2023/05/21 09:09:57;;;;;;;2.77;1.40;;;;;;;;;;4973232;28;93661;-58
2023/05/21 09:12:26;;;;;;;10.37;1.40;;;;;;;;;;4960436;28;92657;-59
2023/05/21 09:14:56;;;;;;;1.50;1.40;;;;;;;;;;4960523;28;92029;-58
2023/05/21 09:17:25;;;;;;;1.83;1.37;;;;;;;;;;4960356;28;92089;-58
2023/05/21 09:20:08;;;;;;;0.90;0.90;;;;;;;;;;4959179;28;95230;-58
2023/05/21 09:22:37;;;;;;;1.03;0.93;;;;;;;;;;4941664;28;92587;-56
2023/05/21 09:25:07;;;;;;;2.60;1.10;;;;;;;;;;4960303;28;92053;-57
2023/05/21 09:27:37;;;;;;;1.40;1.17;;;;;;;;;;4964300;28;92095;-55
2023/05/21 09:30:07;;;;;;;3.77;1.07;;;;;;;;;;4965957;28;93288;-55
2023/05/21 09:32:35;;;;;;;2.77;1.40;;;;;;;;;;4979546;28;92747;-56
2023/05/21 09:35:08;;;;;;;1.53;1.23;;;;;;;;;;4980123;28;92223;-56
2023/05/21 09:37:39;;;;;;;1.93;1.23;;;;;;;;;;4980107;28;91860;-57
2023/05/21 09:40:12;;;;;;;1.20;1.10;;;;;;;;;;4980030;28;93170;-56
2023/05/21 09:42:42;;;;;;;1.73;1.43;;;;;;;;;;4979449;28;93942;-56
2023/05/21 09:45:11;;;;;;;1.83;1.00;;;;;;;;;;4979417;28;92952;-56
2023/05/21 09:47:43;;;;;;;1.67;1.20;;;;;;;;;;4979561;28;92034;-56
2023/05/21 09:50:11;;;;;;;3.33;1.40;;;;;;;;;;4979719;28;93331;-54
2023/05/21 09:52:40;;;;;;;3.13;1.40;;;;;;;;;;4979833;28;92766;-58
2023/05/21 09:55:11;;;;;;;1.33;1.03;;;;;;;;;;4980092;28;91940;-57
2023/05/21 09:57:44;;;;;;;2.20;1.43;;;;;;;;;;4979438;28;91942;-56
2023/05/21 10:00:18;;;;;;;2.80;1.13;;;;;;;;;;4979115;28;93111;-57
2023/05/21 10:02:46;;;;;;;1.90;1.20;;;;;;;;;;4979694;28;92778;-57
2023/05/21 10:05:15;;;;;;;2.90;1.30;;;;;;;;;;4979605;28;92060;-57
2023/05/21 10:07:45;;;;;;;1.23;1.13;;;;;;;;;;4979091;28;92071;-57
2023/05/21 10:10:14;;;;;;;0.80;0.80;;;;;;;;;;4978934;28;95016;-56
2023/05/21 10:12:44;;;;;;;1.60;0.97;;;;;;;;;;4978438;28;94987;-56
2023/05/21 10:15:13;;;;;;;1.30;1.20;;;;;;;;;;4979722;28;91945;-56
2023/05/21 10:17:42;;;;;;;2.77;1.53;;;;;;;;;;4979438;28;92055;-56
2023/05/21 10:20:11;;;;;;;2.17;1.20;;;;;;;;;;4957802;28;93039;-56
2023/05/21 10:22:39;;;;;;;1.20;1.10;;;;;;;;;;4966928;28;92863;-56
2023/05/21 10:25:08;;;;;;;0.73;0.73;;;;;;;;;;4958999;28;91961;-56
2023/05/21 10:27:36;;;;;;;2.60;1.60;;;;;;;;;;4959158;28;91372;-56
2023/05/21 10:30:07;;;;;;;1.23;0.80;;;;;;;;;;4958355;28;94286;-56
2023/05/21 10:32:35;;;;;;;2.37;1.33;;;;;;;;;;4959353;28;94252;-56
2023/05/21 10:35:04;;;;;;;2.77;1.57;;;;;;;;;;4958999;28;92964;-56
2023/05/21 10:37:32;;;;;;;1.03;1.00;;;;;;;;;;4956437;28;92151;-56
2023/05/21 10:40:01;;;;;;;1.13;1.03;;;;;;;;;;4952174;28;92117;-56
2023/05/21 10:42:44;;;;;;;1.57;1.33;;;;;;;;;;4946161;28;92922;-56
2023/05/21 10:45:15;;;;;;;2.43;1.20;;;;;;;;;;4962354;28;93266;-56
2023/05/21 10:47:50;;;;;;;1.60;1.43;;;;;;;;;;4962237;28;92605;-57
2023/05/21 10:50:30;;;;;;;1.10;0.90;;;;;;;;;;4962054;28;92695;-56
2023/05/21 10:53:02;;;;;;;1.10;1.00;;;;;;;;;;4962615;28;93066;-56
2023/05/21 10:55:35;;;;;;;1.33;1.13;;;;;;;;;;4962363;28;92111;-56
2023/05/21 10:58:09;;;;;;;5.23;1.60;;;;;;;;;;4961875;28;92333;-56
2023/05/21 11:00:39;;;;;;;1.30;1.20;;;;;;;;;;4960840;28;95143;-57
2023/05/21 11:03:07;;;;;;;5.90;1.00;;;;;;;;;;4961934;28;93863;-56
2023/05/21 11:05:40;;;;;;;1.43;1.17;;;;;;;;;;4962495;28;92147;-56
2023/05/21 11:08:19;;;;;;;1.40;1.10;;;;;;;;;;4962198;28;92258;-56
2023/05/21 11:10:50;;;;;;;2.17;1.30;;;;;;;;;;4977914;28;94487;-57
2023/05/21 11:13:20;;;;;;;2.00;1.53;;;;;;;;;;4980098;28;94060;-57
2023/05/21 11:16:21;;;;;;;3.97;2.03;;;;;;;;;;4981878;28;92139;-56
2023/05/21 11:19:03;;;;;;;1.47;1.33;;;;;;;;;;4940538;28;91381;-56
2023/05/21 11:21:31;;;;;;;1.60;1.30;;;;;;;;;;4975189;28;94096;-57
2023/05/21 11:24:01;;;;;;;1.70;1.20;;;;;;;;;;4981296;28;93980;-56
2023/05/21 11:26:30;;;;;;;2.63;1.40;;;;;;;;;;4981414;28;93111;-56
2023/05/21 11:29:07;;;;;;;1.33;1.13;;;;;;;;;;4981640;28;92131;-57
2023/05/21 11:31:37;;;;;;;1.43;1.17;;;;;;;;;;4981801;28;93199;-56
2023/05/21 11:34:11;;;;;;;2.07;1.07;;;;;;;;;;4981285;28;92921;-56
2023/05/21 11:36:40;;;;;;;2.53;1.50;;;;;;;;;;4981844;28;92070;-56
2023/05/21 11:39:11;;;;;;;1.17;0.97;;;;;;;;;;4981648;28;92086;-57
2023/05/21 11:41:50;;;;;;;2.60;1.67;;;;;;;;;;4981419;28;93194;-57
2023/05/21 11:44:18;;;;;;;1.20;1.10;;;;;;;;;;4964100;28;93920;-57
2023/05/21 11:46:47;;;;;;;2.03;1.40;;;;;;;;;;4961769;28;92083;-57
2023/05/21 11:49:17;;;;;;;5.33;1.20;;;;;;;;;;4961718;28;92153;-56
2023/05/21 11:51:45;;;;;;;1.70;1.50;;;;;;;;;;4960283;28;95229;-56
2023/05/21 11:54:13;;;;;;;3.90;1.60;;;;;;;;;;4959932;28;93828;-56
2023/05/21 11:56:42;;;;;;;4.13;1.50;;;;;;;;;;4962029;28;92078;-57
2023/05/21 11:59:16;;;;;;;2.20;1.23;;;;;;;;;;4961855;28;92044;-57
2023/05/21 12:01:46;;;;;;;2.90;1.37;;;;;;;;;;4961791;28;94148;-57
2023/05/21 12:04:15;;;;;;;1.50;1.30;;;;;;;;;;4961561;28;93910;-57
2023/05/21 12:06:44;;;;;;;2.13;1.30;;;;;;;;;;4960446;28;92241;-57
2023/05/21 12:09:13;;;;;;;2.20;1.40;;;;;;;;;;4960647;28;93015;-60
2023/05/21 12:11:41;;;;;;;1.83;1.17;;;;;;;;;;4960204;28;94252;-61
2023/05/21 12:14:10;;;;;;;2.87;2.50;;;;;;;;;;4959621;28;93866;-61
2023/05/21 12:16:39;;;;;;;49.23;12.27;;;;;;;;;;4957761;28;93164;-59
2023/05/21 12:19:08;;;;;;;33.27;9.03;;;;;;;;;;4958665;28;92410;-60
2023/05/21 12:21:36;;;;;;;24.93;8.07;;;;;;;;;;4960477;28;93595;-59
2023/05/21 12:24:06;;;;;;;26.23;7.53;;;;;;;;;;4961122;28;93995;-57
2023/05/21 12:26:35;;;;;;;19.50;5.87;;;;;;;;;;4959738;28;92143;-59
2023/05/21 12:29:03;;;;;;;14.17;4.90;;;;;;;;;;4960885;28;92095;-59
2023/05/21 12:31:31;;;;;;;8.17;4.20;;;;;;;;;;4961517;28;93357;-59
2023/05/21 12:34:01;;;;;;;13.57;3.70;;;;;;;;;;4961441;28;92817;-59
2023/05/21 12:36:30;;;;;;;6.67;3.73;;;;;;;;;;4960266;28;92153;-59
2023/05/21 12:38:59;;;;;;;4.37;2.13;;;;;;;;;;4960908;28;92209;-60
2023/05/21 12:41:28;;;;;;;2.67;2.40;;;;;;;;;;4960348;28;93874;-57
2023/05/21 12:43:57;;;;;;;5.00;2.33;;;;;;;;;;4960828;28;94784;-57
2023/05/21 12:46:26;;;;;;;2.87;1.83;;;;;;;;;;4961034;28;92089;-57
2023/05/21 12:48:54;;;;;;;2.57;2.10;;;;;;;;;;4959985;28;91845;-58
2023/05/21 12:51:23;;;;;;;5.50;2.03;;;;;;;;;;4960674;28;93287;-58
2023/05/21 12:53:51;;;;;;;4.50;1.63;;;;;;;;;;4960378;28;92984;-58
2023/05/21 12:56:20;;;;;;;2.13;1.47;;;;;;;;;;4960967;28;91967;-58
2023/05/21 12:58:50;;;;;;;3.47;1.60;;;;;;;;;;4960608;28;91428;-60
2023/05/21 13:01:18;;;;;;;2.20;1.77;;;;;;;;;;4961162;28;93192;-60
2023/05/21 13:03:47;;;;;;;2.93;1.50;;;;;;;;;;4958794;28;93895;-60
2023/05/21 13:06:15;;;;;;;4.80;1.60;;;;;;;;;;4958780;28;93030;-60
2023/05/21 13:08:43;;;;;;;2.63;1.67;;;;;;;;;;4961212;28;92024;-60
2023/05/21 13:11:12;;;;;;;2.73;2.03;;;;;;;;;;4960277;28;93889;-59
2023/05/21 13:13:40;;;;;;;2.43;2.20;;;;;;;;;;4960415;28;92948;-60
2023/05/21 13:16:10;;;;;;;2.80;1.80;;;;;;;;;;4960685;28;91945;-61
2023/05/21 13:18:38;;;;;;;2.67;1.80;;;;;;;;;;4960798;28;92068;-60
2023/05/21 13:21:07;;;;;;;2.23;1.83;;;;;;;;;;4960218;28;92148;-60
2023/05/21 13:23:35;;;;;;;2.23;1.50;;;;;;;;;;4960479;28;93870;-60
2023/05/21 13:26:03;;;;;;;2.30;1.33;;;;;;;;;;4960940;28;91883;-60
2023/05/21 13:28:31;;;;;;;2.40;1.53;;;;;;;;;;4960008;28;92041;-59
2023/05/21 13:31:00;;;;;;;2.60;1.30;;;;;;;;;;4959565;28;94139;-60
2023/05/21 13:33:30;;;;;;;3.63;1.83;;;;;;;;;;4960149;28;92414;-60
2023/05/21 13:35:59;;;;;;;2.43;1.80;;;;;;;;;;4960608;28;92042;-60
2023/05/21 13:38:27;;;;;;;3.03;1.50;;;;;;;;;;4960652;28;92084;-60
2023/05/21 13:40:55;;;;;;;1.93;1.37;;;;;;;;;;4959737;28;93970;-60
2023/05/21 13:43:24;;;;;;;4.00;2.00;;;;;;;;;;4959178;28;92793;-60
2023/05/21 13:45:52;;;;;;;2.80;1.93;;;;;;;;;;4960448;28;91926;-61
2023/05/21 13:48:20;;;;;;;2.57;1.53;;;;;;;;;;4960750;28;91323;-60
2023/05/21 13:50:50;;;;;;;4.13;1.70;;;;;;;;;;4959816;28;93090;-60
2023/05/21 13:53:18;;;;;;;2.33;1.57;;;;;;;;;;4960095;28;93920;-60
2023/05/21 13:55:47;;;;;;;2.50;1.47;;;;;;;;;;4959903;28;93033;-61
2023/05/21 13:58:15;;;;;;;2.60;1.70;;;;;;;;;;4959791;28;92176;-61
2023/05/21 14:00:44;;;;;;;2.97;1.77;;;;;;;;;;4959946;28;94237;-60
2023/05/21 14:03:12;;;;;;;1.43;1.33;;;;;;;;;;4959707;28;93024;-60
2023/05/21 14:05:41;;;;;;;4.77;1.50;;;;;;;;;;4960227;28;91801;-60
2023/05/21 14:08:11;;;;;;;3.27;1.80;;;;;;;;;;4959982;28;91877;-59
2023/05/21 14:10:40;;;;;;;2.63;1.67;;;;;;;;;;4959760;28;93357;-60
2023/05/21 14:13:08;;;;;;;2.90;1.67;;;;;;;;;;4959842;28;93102;-59
2023/05/21 14:15:47;;;;;;;2.13;1.67;;;;;;;;;;4959657;28;91851;-60
2023/05/21 14:18:15;;;;;;;2.83;1.70;;;;;;;;;;4960080;28;92063;-60
2023/05/21 14:20:44;;;;;;;3.33;1.97;;;;;;;;;;4958600;28;94123;-60
2023/05/21 14:23:13;;;;;;;2.57;1.87;;;;;;;;;;4959576;28;94769;-60
2023/05/21 14:25:42;;;;;;;2.77;1.37;;;;;;;;;;4960256;28;92019;-60
2023/05/21 14:28:10;;;;;;;2.47;1.87;;;;;;;;;;4959126;28;92945;-60
2023/05/21 14:30:38;;;;;;;4.33;1.80;;;;;;;;;;4958047;28;93369;-61
2023/05/21 14:33:07;;;;;;;1.73;1.60;;;;;;;;;;4957866;28;94036;-60
2023/05/21 14:35:35;;;;;;;2.83;1.70;;;;;;;;;;4958356;28;92385;-60
2023/05/21 14:38:04;;;;;;;2.20;1.63;;;;;;;;;;4959616;28;91202;-59
2023/05/21 14:40:34;;;;;;;3.47;1.63;;;;;;;;;;4958802;28;93183;-60
2023/05/21 14:43:02;;;;;;;2.57;1.33;;;;;;;;;;4958149;28;92979;-60
2023/05/21 14:45:33;;;;;;;1.53;1.30;;;;;;;;;;4958867;28;92865;-60
2023/05/21 14:48:07;;;;;;;2.00;1.43;;;;;;;;;;4959810;28;92064;-60
2023/05/21 14:50:35;;;;;;;2.80;1.27;;;;;;;;;;4959205;28;94299;-60
2023/05/21 14:53:04;;;;;;;2.70;1.30;;;;;;;;;;4959456;28;91970;-60
2023/05/21 14:55:35;;;;;;;2.07;1.03;;;;;;;;;;4959974;28;91917;-59